sensor_id;sensor_type;location;lat;lon;timestamp;pressure;altitude;pressure_sealevel;temperature;humidity
28312;BME280;15572;48.810;9.148;2023-10-13T00:00:28;98160.84;;;17.46;94.90
28312;BME280;15572;48.810;9.148;2023-10-13T00:05:29;98158.69;;;17.48;94.92
28312;BME280;15572;48.810;9.148;2023-10-13T00:10:27;98159.19;;;17.45;95.21
28312;BME280;15572;48.810;9.148;2023-10-13T00:15:25;98154.34;;;17.36;95.43
28312;BME280;15572;48.810;9.148;2023-10-13T00:20:23;98147.69;;;17.20;96.72
28312;BME280;15572;48.810;9.148;2023-10-13T00:25:30;98134.38;;;17.12;96.52
28312;BME280;15572;48.810;9.148;2023-10-13T00:30:39;98148.38;;;17.15;92.96
28312;BME280;15572;48.810;9.148;2023-10-13T00:35:36;98141.63;;;17.18;93.24
28312;BME280;15572;48.810;9.148;2023-10-13T00:40:37;98139.00;;;17.23;90.49
28312;BME280;15572;48.810;9.148;2023-10-13T00:45:39;98139.06;;;17.51;78.93
28312;BME280;15572;48.810;9.148;2023-10-13T00:50:37;98145.91;;;17.77;70.79
28312;BME280;15572;48.810;9.148;2023-10-13T00:55:33;98133.78;;;18.01;67.00
28312;BME280;15572;48.810;9.148;2023-10-13T01:00:36;98141.28;;;18.23;63.11
28312;BME280;15572;48.810;9.148;2023-10-13T01:05:43;98138.56;;;18.39;61.97
28312;BME280;15572;48.810;9.148;2023-10-13T01:10:41;98139.56;;;18.50;60.09
28312;BME280;15572;48.810;9.148;2023-10-13T01:15:38;98130.97;;;18.58;60.29
28312;BME280;15572;48.810;9.148;2023-10-13T01:20:36;98130.63;;;18.71;58.27
28312;BME280;15572;48.810;9.148;2023-10-13T01:25:40;98123.47;;;18.70;59.09
28312;BME280;15572;48.810;9.148;2023-10-13T01:30:36;98113.88;;;18.68;58.50
28312;BME280;15572;48.810;9.148;2023-10-13T01:35:34;98108.63;;;18.66;57.80
28312;BME280;15572;48.810;9.148;2023-10-13T01:40:37;98109.47;;;18.67;57.02
28312;BME280;15572;48.810;9.148;2023-10-13T01:45:34;98103.13;;;18.66;57.37
28312;BME280;15572;48.810;9.148;2023-10-13T01:50:31;98109.69;;;18.65;57.40
28312;BME280;15572;48.810;9.148;2023-10-13T01:55:28;98101.66;;;18.59;57.92
28312;BME280;15572;48.810;9.148;2023-10-13T02:00:24;98110.53;;;18.66;57.05
28312;BME280;15572;48.810;9.148;2023-10-13T02:05:22;98095.81;;;18.72;56.73
28312;BME280;15572;48.810;9.148;2023-10-13T02:10:26;98091.41;;;18.71;56.96
28312;BME280;15572;48.810;9.148;2023-10-13T02:15:25;98084.78;;;18.67;57.13
28312;BME280;15572;48.810;9.148;2023-10-13T02:20:24;98081.22;;;18.66;56.96
28312;BME280;15572;48.810;9.148;2023-10-13T02:25:25;98085.53;;;18.62;57.20
28312;BME280;15572;48.810;9.148;2023-10-13T02:30:37;98062.78;;;18.62;56.98
28312;BME280;15572;48.810;9.148;2023-10-13T02:35:35;98072.66;;;18.63;56.90
28312;BME280;15572;48.810;9.148;2023-10-13T02:40:36;98059.50;;;18.65;57.05
28312;BME280;15572;48.810;9.148;2023-10-13T02:45:33;98062.53;;;18.63;56.83
28312;BME280;15572;48.810;9.148;2023-10-13T02:50:31;98055.88;;;18.59;56.82
28312;BME280;15572;48.810;9.148;2023-10-13T02:55:30;98052.06;;;18.60;56.71
28312;BME280;15572;48.810;9.148;2023-10-13T03:00:27;98046.84;;;18.59;56.31
28312;BME280;15572;48.810;9.148;2023-10-13T03:05:27;98037.50;;;18.60;56.02
28312;BME280;15572;48.810;9.148;2023-10-13T03:10:26;98034.44;;;18.56;56.12
28312;BME280;15572;48.810;9.148;2023-10-13T03:15:25;98031.72;;;18.56;56.10
28312;BME280;15572;48.810;9.148;2023-10-13T03:20:25;98038.09;;;18.62;55.92
28312;BME280;15572;48.810;9.148;2023-10-13T03:25:30;98031.97;;;18.55;56.14
28312;BME280;15572;48.810;9.148;2023-10-13T03:30:39;98028.63;;;18.52;56.11
28312;BME280;15572;48.810;9.148;2023-10-13T03:35:37;98029.94;;;18.50;56.20
28312;BME280;15572;48.810;9.148;2023-10-13T03:40:35;98025.47;;;18.44;56.67
28312;BME280;15572;48.810;9.148;2023-10-13T03:45:34;98023.47;;;18.39;56.69
28312;BME280;15572;48.810;9.148;2023-10-13T03:50:34;98024.06;;;18.41;56.47
28312;BME280;15572;48.810;9.148;2023-10-13T03:55:31;98011.94;;;18.37;56.62
28312;BME280;15572;48.810;9.148;2023-10-13T04:00:30;98018.59;;;18.41;56.48
28312;BME280;15572;48.810;9.148;2023-10-13T04:05:27;98023.56;;;18.44;56.04
28312;BME280;15572;48.810;9.148;2023-10-13T04:10:37;98011.50;;;18.45;55.85
28312;BME280;15572;48.810;9.148;2023-10-13T04:15:56;98021.31;;;18.41;56.00
28312;BME280;15572;48.810;9.148;2023-10-13T04:21:10;98015.34;;;18.44;55.81
28312;BME280;15572;48.810;9.148;2023-10-13T04:26:28;98012.41;;;18.51;55.69
28312;BME280;15572;48.810;9.148;2023-10-13T04:31:44;98012.19;;;18.52;55.59
28312;BME280;15572;48.810;9.148;2023-10-13T04:36:52;98003.59;;;18.49;55.51
28312;BME280;15572;48.810;9.148;2023-10-13T04:42:07;97997.22;;;18.43;55.93
28312;BME280;15572;48.810;9.148;2023-10-13T04:47:29;97992.91;;;18.47;55.61
28312;BME280;15572;48.810;9.148;2023-10-13T04:52:36;97997.06;;;18.33;56.20
28312;BME280;15572;48.810;9.148;2023-10-13T04:57:57;97992.03;;;18.25;56.48
28312;BME280;15572;48.810;9.148;2023-10-13T05:03:06;97990.28;;;18.19;56.74
28312;BME280;15572;48.810;9.148;2023-10-13T05:08:25;97989.97;;;18.16;56.92
28312;BME280;15572;48.810;9.148;2023-10-13T05:13:40;97984.06;;;18.07;57.19
28312;BME280;15572;48.810;9.148;2023-10-13T05:18:55;97979.56;;;18.01;57.66
28312;BME280;15572;48.810;9.148;2023-10-13T05:24:09;97980.84;;;17.93;57.93
28312;BME280;15572;48.810;9.148;2023-10-13T05:29:24;97978.84;;;17.89;58.16
28312;BME280;15572;48.810;9.148;2023-10-13T05:34:40;97964.81;;;17.85;57.92
28312;BME280;15572;48.810;9.148;2023-10-13T05:39:54;97963.97;;;17.85;57.86
28312;BME280;15572;48.810;9.148;2023-10-13T05:45:07;97964.56;;;17.87;58.07
28312;BME280;15572;48.810;9.148;2023-10-13T05:50:19;97966.47;;;17.86;57.66
28312;BME280;15572;48.810;9.148;2023-10-13T05:55:45;97964.06;;;17.90;57.69
28312;BME280;15572;48.810;9.148;2023-10-13T06:01:00;97974.38;;;17.99;57.21
28312;BME280;15572;48.810;9.148;2023-10-13T06:06:14;97981.47;;;18.00;57.38
28312;BME280;15572;48.810;9.148;2023-10-13T06:11:29;97990.88;;;18.04;57.29
28312;BME280;15572;48.810;9.148;2023-10-13T06:16:44;97998.81;;;18.06;57.53
28312;BME280;15572;48.810;9.148;2023-10-13T06:21:58;98005.72;;;18.08;57.96
28312;BME280;15572;48.810;9.148;2023-10-13T06:27:12;97999.50;;;18.13;58.17
28312;BME280;15572;48.810;9.148;2023-10-13T06:32:27;97996.28;;;18.16;58.40
28312;BME280;15572;48.810;9.148;2023-10-13T06:37:24;97991.34;;;18.18;58.55
28312;BME280;15572;48.810;9.148;2023-10-13T06:42:21;97989.44;;;18.19;58.66
28312;BME280;15572;48.810;9.148;2023-10-13T06:47:22;97992.44;;;18.17;59.36
28312;BME280;15572;48.810;9.148;2023-10-13T06:52:21;97990.59;;;18.06;60.70
28312;BME280;15572;48.810;9.148;2023-10-13T06:57:17;97994.16;;;17.90;62.20
28312;BME280;15572;48.810;9.148;2023-10-13T07:02:16;97993.00;;;17.86;63.42
28312;BME280;15572;48.810;9.148;2023-10-13T07:07:16;97989.13;;;17.82;64.17
28312;BME280;15572;48.810;9.148;2023-10-13T07:12:15;97992.09;;;17.80;65.06
28312;BME280;15572;48.810;9.148;2023-10-13T07:17:13;97987.97;;;17.78;66.19
28312;BME280;15572;48.810;9.148;2023-10-13T07:22:19;97984.63;;;17.76;67.24
28312;BME280;15572;48.810;9.148;2023-10-13T07:27:17;97991.53;;;17.78;67.73
28312;BME280;15572;48.810;9.148;2023-10-13T07:32:19;97989.13;;;17.82;67.79
28312;BME280;15572;48.810;9.148;2023-10-13T07:37:19;97979.09;;;17.87;68.12
28312;BME280;15572;48.810;9.148;2023-10-13T07:42:19;97981.06;;;17.92;68.00
28312;BME280;15572;48.810;9.148;2023-10-13T07:47:17;97980.16;;;18.03;67.46
28312;BME280;15572;48.810;9.148;2023-10-13T07:52:15;97974.38;;;18.16;66.70
28312;BME280;15572;48.810;9.148;2023-10-13T07:57:32;97972.63;;;18.65;58.49
28312;BME280;15572;48.810;9.148;2023-10-13T08:02:30;97962.06;;;18.96;57.72
28312;BME280;15572;48.810;9.148;2023-10-13T08:07:43;97960.50;;;19.26;55.87
28312;BME280;15572;48.810;9.148;2023-10-13T08:12:43;97961.44;;;19.59;54.07
28312;BME280;15572;48.810;9.148;2023-10-13T08:17:40;97947.63;;;19.81;53.49
28312;BME280;15572;48.810;9.148;2023-10-13T08:22:40;97954.13;;;20.01;51.60
28312;BME280;15572;48.810;9.148;2023-10-13T08:27:43;97948.19;;;20.19;50.89
28312;BME280;15572;48.810;9.148;2023-10-13T08:33:00;97945.13;;;20.48;49.73
28312;BME280;15572;48.810;9.148;2023-10-13T08:38:11;97931.75;;;20.62;49.01
28312;BME280;15572;48.810;9.148;2023-10-13T08:43:13;97928.31;;;20.96;46.13
28312;BME280;15572;48.810;9.148;2023-10-13T08:48:12;97921.03;;;21.37;43.79
28312;BME280;15572;48.810;9.148;2023-10-13T08:53:10;97919.41;;;21.62;42.21
28312;BME280;15572;48.810;9.148;2023-10-13T08:58:23;97913.91;;;21.92;41.77
28312;BME280;15572;48.810;9.148;2023-10-13T09:03:38;97913.94;;;22.02;41.54
28312;BME280;15572;48.810;9.148;2023-10-13T09:08:36;97916.66;;;22.17;41.03
28312;BME280;15572;48.810;9.148;2023-10-13T09:13:41;97916.59;;;22.58;39.76
28312;BME280;15572;48.810;9.148;2023-10-13T09:18:40;97914.63;;;22.84;39.87
28312;BME280;15572;48.810;9.148;2023-10-13T09:23:45;97910.03;;;23.23;38.60
28312;BME280;15572;48.810;9.148;2023-10-13T09:28:45;97919.00;;;23.49;37.81
28312;BME280;15572;48.810;9.148;2023-10-13T09:33:46;97902.91;;;23.56;37.56
28312;BME280;15572;48.810;9.148;2023-10-13T09:38:45;97904.75;;;23.71;37.33
28312;BME280;15572;48.810;9.148;2023-10-13T09:43:46;97906.03;;;23.83;37.11
28312;BME280;15572;48.810;9.148;2023-10-13T09:48:44;97894.41;;;23.86;36.88
28312;BME280;15572;48.810;9.148;2023-10-13T09:53:47;97887.31;;;23.75;37.20
28312;BME280;15572;48.810;9.148;2023-10-13T09:58:53;97888.75;;;24.02;36.30
28312;BME280;15572;48.810;9.148;2023-10-13T10:03:52;97881.16;;;24.17;36.28
28312;BME280;15572;48.810;9.148;2023-10-13T10:09:06;97875.63;;;24.46;36.00
28312;BME280;15572;48.810;9.148;2023-10-13T10:14:10;97881.41;;;24.68;35.94
28312;BME280;15572;48.810;9.148;2023-10-13T10:19:09;97872.53;;;24.95;35.04
28312;BME280;15572;48.810;9.148;2023-10-13T10:24:14;97863.59;;;25.03;34.92
28312;BME280;15572;48.810;9.148;2023-10-13T10:29:20;97865.22;;;25.04;35.02
28312;BME280;15572;48.810;9.148;2023-10-13T10:34:17;97859.50;;;24.96;34.67
28312;BME280;15572;48.810;9.148;2023-10-13T10:39:14;97856.38;;;25.02;34.66
28312;BME280;15572;48.810;9.148;2023-10-13T10:44:13;97851.94;;;24.83;35.25
28312;BME280;15572;48.810;9.148;2023-10-13T10:49:23;97841.13;;;25.24;34.43
28312;BME280;15572;48.810;9.148;2023-10-13T10:54:24;97838.06;;;25.44;34.32
28312;BME280;15572;48.810;9.148;2023-10-13T10:59:34;97832.66;;;25.71;33.76
28312;BME280;15572;48.810;9.148;2023-10-13T11:04:34;97820.00;;;25.65;33.59
28312;BME280;15572;48.810;9.148;2023-10-13T11:09:35;97809.88;;;25.74;33.83
28312;BME280;15572;48.810;9.148;2023-10-13T11:14:42;97798.25;;;26.05;33.51
28312;BME280;15572;48.810;9.148;2023-10-13T11:19:43;97790.81;;;26.32;33.67
28312;BME280;15572;48.810;9.148;2023-10-13T11:24:40;97776.81;;;26.51;32.80
28312;BME280;15572;48.810;9.148;2023-10-13T11:29:37;97788.53;;;26.62;32.28
28312;BME280;15572;48.810;9.148;2023-10-13T11:34:34;97774.94;;;26.74;31.26
28312;BME280;15572;48.810;9.148;2023-10-13T11:39:37;97774.63;;;26.89;30.78
28312;BME280;15572;48.810;9.148;2023-10-13T11:44:37;97764.53;;;26.93;30.64
28312;BME280;15572;48.810;9.148;2023-10-13T11:49:38;97759.25;;;27.05;30.58
28312;BME280;15572;48.810;9.148;2023-10-13T11:54:35;97763.31;;;27.21;30.54
28312;BME280;15572;48.810;9.148;2023-10-13T11:59:38;97760.25;;;27.23;30.33
28312;BME280;15572;48.810;9.148;2023-10-13T12:04:48;97749.06;;;27.37;30.06
28312;BME280;15572;48.810;9.148;2023-10-13T12:09:48;97741.69;;;27.32;30.25
28312;BME280;15572;48.810;9.148;2023-10-13T12:14:59;97735.16;;;27.37;30.30
28312;BME280;15572;48.810;9.148;2023-10-13T12:20:06;97726.56;;;27.47;30.50
28312;BME280;15572;48.810;9.148;2023-10-13T12:25:05;97729.47;;;27.55;30.18
28312;BME280;15572;48.810;9.148;2023-10-13T12:30:15;97725.88;;;27.41;30.64
28312;BME280;15572;48.810;9.148;2023-10-13T12:35:17;97705.50;;;27.46;30.77
28312;BME280;15572;48.810;9.148;2023-10-13T12:40:22;97698.53;;;27.57;30.66
28312;BME280;15572;48.810;9.148;2023-10-13T12:45:39;97683.47;;;27.80;30.37
28312;BME280;15572;48.810;9.148;2023-10-13T12:51:02;97689.59;;;27.99;29.90
28312;BME280;15572;48.810;9.148;2023-10-13T12:56:15;97676.28;;;28.19;30.22
28312;BME280;15572;48.810;9.148;2023-10-13T13:01:13;97667.00;;;28.40;29.54
28312;BME280;15572;48.810;9.148;2023-10-13T13:06:15;97643.94;;;28.48;29.99
28312;BME280;15572;48.810;9.148;2023-10-13T13:11:12;97645.44;;;28.63;29.25
28312;BME280;15572;48.810;9.148;2023-10-13T13:16:09;97638.41;;;28.83;28.83
28312;BME280;15572;48.810;9.148;2023-10-13T13:21:07;97630.00;;;29.17;27.36
28312;BME280;15572;48.810;9.148;2023-10-13T13:26:07;97639.19;;;29.18;27.01
28312;BME280;15572;48.810;9.148;2023-10-13T13:31:11;97628.06;;;29.26;26.46
28312;BME280;15572;48.810;9.148;2023-10-13T13:36:09;97607.06;;;29.20;26.33
28312;BME280;15572;48.810;9.148;2023-10-13T13:41:11;97607.06;;;29.20;26.80
28312;BME280;15572;48.810;9.148;2023-10-13T13:46:11;97591.50;;;29.37;26.58
28312;BME280;15572;48.810;9.148;2023-10-13T13:51:09;97579.69;;;29.31;26.39
28312;BME280;15572;48.810;9.148;2023-10-13T13:56:09;97579.75;;;29.05;28.12
28312;BME280;15572;48.810;9.148;2023-10-13T14:01:06;97576.47;;;29.03;27.17
28312;BME280;15572;48.810;9.148;2023-10-13T14:06:10;97559.25;;;29.01;27.39
28312;BME280;15572;48.810;9.148;2023-10-13T14:11:12;97562.69;;;29.07;26.22
28312;BME280;15572;48.810;9.148;2023-10-13T14:16:38;97555.22;;;28.90;27.66
28312;BME280;15572;48.810;9.148;2023-10-13T14:21:40;97551.59;;;28.38;31.41
28312;BME280;15572;48.810;9.148;2023-10-13T14:26:37;97548.31;;;28.27;28.79
28312;BME280;15572;48.810;9.148;2023-10-13T14:31:35;97549.47;;;28.43;28.17
28312;BME280;15572;48.810;9.148;2023-10-13T14:36:32;97540.78;;;28.54;27.06
28312;BME280;15572;48.810;9.148;2023-10-13T14:41:32;97530.94;;;28.65;26.56
28312;BME280;15572;48.810;9.148;2023-10-13T14:46:28;97531.00;;;28.73;26.60
28312;BME280;15572;48.810;9.148;2023-10-13T14:51:25;97536.84;;;28.55;26.82
28312;BME280;15572;48.810;9.148;2023-10-13T14:56:22;97532.44;;;28.54;26.21
28312;BME280;15572;48.810;9.148;2023-10-13T15:01:22;97524.44;;;28.52;26.01
28312;BME280;15572;48.810;9.148;2023-10-13T15:06:23;97515.25;;;28.43;25.81
28312;BME280;15572;48.810;9.148;2023-10-13T15:11:21;97512.31;;;28.31;25.79
28312;BME280;15572;48.810;9.148;2023-10-13T15:16:24;97509.53;;;28.31;25.84
28312;BME280;15572;48.810;9.148;2023-10-13T15:21:22;97508.22;;;28.28;25.65
28312;BME280;15572;48.810;9.148;2023-10-13T15:26:21;97500.34;;;28.04;26.37
28312;BME280;15572;48.810;9.148;2023-10-13T15:31:19;97493.63;;;27.97;26.07
28312;BME280;15572;48.810;9.148;2023-10-13T15:36:33;97494.44;;;27.97;25.70
28312;BME280;15572;48.810;9.148;2023-10-13T15:41:30;97491.47;;;27.85;25.36
28312;BME280;15572;48.810;9.148;2023-10-13T15:46:28;97488.00;;;27.62;25.67
28312;BME280;15572;48.810;9.148;2023-10-13T15:51:26;97492.63;;;27.36;26.29
28312;BME280;15572;48.810;9.148;2023-10-13T15:56:23;97477.06;;;27.27;25.97
28312;BME280;15572;48.810;9.148;2023-10-13T16:01:20;97474.06;;;27.14;25.91
28312;BME280;15572;48.810;9.148;2023-10-13T16:06:18;97472.38;;;26.96;26.10
28312;BME280;15572;48.810;9.148;2023-10-13T16:11:17;97474.94;;;26.93;25.97
28312;BME280;15572;48.810;9.148;2023-10-13T16:16:16;97458.06;;;26.80;25.85
28312;BME280;15572;48.810;9.148;2023-10-13T16:21:12;97468.06;;;26.59;26.27
28312;BME280;15572;48.810;9.148;2023-10-13T16:26:10;97459.09;;;26.40;26.61
28312;BME280;15572;48.810;9.148;2023-10-13T16:31:06;97458.75;;;26.33;26.17
28312;BME280;15572;48.810;9.148;2023-10-13T16:36:05;97451.22;;;26.11;26.58
28312;BME280;15572;48.810;9.148;2023-10-13T16:41:04;97453.66;;;25.90;26.91
28312;BME280;15572;48.810;9.148;2023-10-13T16:46:03;97453.69;;;25.77;26.99
28312;BME280;15572;48.810;9.148;2023-10-13T16:51:01;97441.66;;;25.81;27.14
28312;BME280;15572;48.810;9.148;2023-10-13T16:56:02;97454.34;;;25.60;27.73
28312;BME280;15572;48.810;9.148;2023-10-13T17:00:58;97454.34;;;25.33;28.27
28312;BME280;15572;48.810;9.148;2023-10-13T17:05:59;97451.19;;;25.12;28.85
28312;BME280;15572;48.810;9.148;2023-10-13T17:10:56;97457.53;;;24.99;29.12
28312;BME280;15572;48.810;9.148;2023-10-13T17:15:55;97448.63;;;24.88;29.51
28312;BME280;15572;48.810;9.148;2023-10-13T17:20:54;97450.94;;;24.81;29.65
28312;BME280;15572;48.810;9.148;2023-10-13T17:25:51;97453.38;;;24.69;29.70
28312;BME280;15572;48.810;9.148;2023-10-13T17:30:49;97448.34;;;24.71;30.30
28312;BME280;15572;48.810;9.148;2023-10-13T17:35:46;97448.75;;;24.64;30.41
28312;BME280;15572;48.810;9.148;2023-10-13T17:40:44;97437.88;;;24.54;30.86
28312;BME280;15572;48.810;9.148;2023-10-13T17:45:43;97432.63;;;24.39;31.36
28312;BME280;15572;48.810;9.148;2023-10-13T17:50:39;97436.88;;;24.31;31.66
28312;BME280;15572;48.810;9.148;2023-10-13T17:55:37;97429.66;;;24.17;32.43
28312;BME280;15572;48.810;9.148;2023-10-13T18:00:35;97425.38;;;23.92;33.08
28312;BME280;15572;48.810;9.148;2023-10-13T18:05:32;97430.22;;;23.63;34.00
28312;BME280;15572;48.810;9.148;2023-10-13T18:10:30;97422.50;;;23.41;34.22
28312;BME280;15572;48.810;9.148;2023-10-13T18:15:28;97420.69;;;23.31;34.94
28312;BME280;15572;48.810;9.148;2023-10-13T18:20:24;97429.25;;;23.30;35.55
28312;BME280;15572;48.810;9.148;2023-10-13T18:25:21;97421.44;;;23.37;35.98
28312;BME280;15572;48.810;9.148;2023-10-13T18:30:19;97412.41;;;23.31;36.00
28312;BME280;15572;48.810;9.148;2023-10-13T18:35:18;97415.25;;;23.26;36.49
28312;BME280;15572;48.810;9.148;2023-10-13T18:40:16;97408.75;;;23.17;36.79
28312;BME280;15572;48.810;9.148;2023-10-13T18:45:16;97399.78;;;23.06;37.17
28312;BME280;15572;48.810;9.148;2023-10-13T18:50:13;97384.97;;;22.97;37.50
28312;BME280;15572;48.810;9.148;2023-10-13T18:55:12;97390.06;;;22.90;37.91
28312;BME280;15572;48.810;9.148;2023-10-13T19:00:09;97390.81;;;22.96;37.65
28312;BME280;15572;48.810;9.148;2023-10-13T19:05:09;97386.19;;;22.91;37.68
28312;BME280;15572;48.810;9.148;2023-10-13T19:10:06;97385.94;;;22.88;37.40
28312;BME280;15572;48.810;9.148;2023-10-13T19:15:11;97385.72;;;22.84;37.44
28312;BME280;15572;48.810;9.148;2023-10-13T19:20:09;97377.78;;;22.78;37.60
28312;BME280;15572;48.810;9.148;2023-10-13T19:25:11;97385.28;;;22.72;38.03
28312;BME280;15572;48.810;9.148;2023-10-13T19:30:08;97394.63;;;22.76;37.45
28312;BME280;15572;48.810;9.148;2023-10-13T19:35:07;97381.66;;;22.77;37.39
28312;BME280;15572;48.810;9.148;2023-10-13T19:40:05;97378.38;;;22.75;37.36
28312;BME280;15572;48.810;9.148;2023-10-13T19:45:02;97374.81;;;22.69;37.33
28312;BME280;15572;48.810;9.148;2023-10-13T19:49:59;97373.47;;;22.66;37.20
28312;BME280;15572;48.810;9.148;2023-10-13T19:54:57;97377.28;;;22.71;36.37
28312;BME280;15572;48.810;9.148;2023-10-13T19:59:54;97375.91;;;22.73;35.96
28312;BME280;15572;48.810;9.148;2023-10-13T20:04:50;97372.19;;;22.83;35.16
28312;BME280;15572;48.810;9.148;2023-10-13T20:09:47;97371.50;;;22.96;34.13
28312;BME280;15572;48.810;9.148;2023-10-13T20:14:45;97369.50;;;23.01;33.80
28312;BME280;15572;48.810;9.148;2023-10-13T20:19:41;97361.44;;;23.05;33.91
28312;BME280;15572;48.810;9.148;2023-10-13T20:24:38;97364.25;;;23.19;33.26
28312;BME280;15572;48.810;9.148;2023-10-13T20:29:34;97362.88;;;23.21;33.16
28312;BME280;15572;48.810;9.148;2023-10-13T20:34:36;97360.72;;;23.37;32.65
28312;BME280;15572;48.810;9.148;2023-10-13T20:39:33;97361.31;;;23.34;33.06
28312;BME280;15572;48.810;9.148;2023-10-13T20:44:30;97355.97;;;23.19;33.40
28312;BME280;15572;48.810;9.148;2023-10-13T20:49:32;97359.88;;;23.18;33.42
28312;BME280;15572;48.810;9.148;2023-10-13T20:54:30;97349.22;;;23.11;33.13
28312;BME280;15572;48.810;9.148;2023-10-13T20:59:27;97352.56;;;23.27;32.65
28312;BME280;15572;48.810;9.148;2023-10-13T21:04:23;97354.38;;;23.18;32.68
28312;BME280;15572;48.810;9.148;2023-10-13T21:09:20;97353.56;;;22.93;33.39
28312;BME280;15572;48.810;9.148;2023-10-13T21:14:18;97345.84;;;22.95;33.36
28312;BME280;15572;48.810;9.148;2023-10-13T21:19:14;97351.50;;;23.04;32.64
28312;BME280;15572;48.810;9.148;2023-10-13T21:24:11;97347.16;;;22.98;32.64
28312;BME280;15572;48.810;9.148;2023-10-13T21:29:07;97347.38;;;22.83;33.20
28312;BME280;15572;48.810;9.148;2023-10-13T21:34:05;97341.63;;;22.79;32.52
28312;BME280;15572;48.810;9.148;2023-10-13T21:39:03;97338.41;;;22.72;32.79
28312;BME280;15572;48.810;9.148;2023-10-13T21:43:59;97336.41;;;22.78;32.67
28312;BME280;15572;48.810;9.148;2023-10-13T21:48:58;97331.09;;;22.81;32.39
28312;BME280;15572;48.810;9.148;2023-10-13T21:54:02;97324.47;;;22.82;32.78
28312;BME280;15572;48.810;9.148;2023-10-13T21:58:58;97331.78;;;22.92;32.40
28312;BME280;15572;48.810;9.148;2023-10-13T22:03:57;97329.88;;;23.11;32.06
28312;BME280;15572;48.810;9.148;2023-10-13T22:09:06;97328.69;;;23.17;32.03
28312;BME280;15572;48.810;9.148;2023-10-13T22:14:05;97334.59;;;23.11;32.36
28312;BME280;15572;48.810;9.148;2023-10-13T22:19:02;97343.69;;;23.11;32.42
28312;BME280;15572;48.810;9.148;2023-10-13T22:23:58;97346.59;;;23.20;32.00
28312;BME280;15572;48.810;9.148;2023-10-13T22:28:57;97365.22;;;23.09;32.26
28312;BME280;15572;48.810;9.148;2023-10-13T22:33:54;97371.00;;;23.13;32.49
28312;BME280;15572;48.810;9.148;2023-10-13T22:38:52;97358.31;;;23.30;32.56
28312;BME280;15572;48.810;9.148;2023-10-13T22:43:49;97370.47;;;23.29;32.85
28312;BME280;15572;48.810;9.148;2023-10-13T22:48:48;97371.06;;;23.26;32.97
28312;BME280;15572;48.810;9.148;2023-10-13T22:53:45;97371.00;;;23.31;33.41
28312;BME280;15572;48.810;9.148;2023-10-13T22:58:41;97367.78;;;23.24;33.87
28312;BME280;15572;48.810;9.148;2023-10-13T23:03:39;97359.56;;;23.19;33.99
28312;BME280;15572;48.810;9.148;2023-10-13T23:08:38;97358.88;;;23.08;34.50
28312;BME280;15572;48.810;9.148;2023-10-13T23:13:35;97360.31;;;23.06;34.67
28312;BME280;15572;48.810;9.148;2023-10-13T23:18:33;97369.31;;;22.93;34.91
28312;BME280;15572;48.810;9.148;2023-10-13T23:23:29;97380.47;;;22.83;35.00
28312;BME280;15572;48.810;9.148;2023-10-13T23:28:27;97385.00;;;22.74;35.31
28312;BME280;15572;48.810;9.148;2023-10-13T23:33:24;97387.78;;;22.68;35.56
28312;BME280;15572;48.810;9.148;2023-10-13T23:38:20;97369.72;;;22.57;35.79
28312;BME280;15572;48.810;9.148;2023-10-13T23:43:30;97399.88;;;22.49;36.38
28312;BME280;15572;48.810;9.148;2023-10-13T23:48:38;97388.25;;;22.52;36.73
28312;BME280;15572;48.810;9.148;2023-10-13T23:53:38;97396.34;;;22.43;37.23
28312;BME280;15572;48.810;9.148;2023-10-13T23:58:44;97389.69;;;22.44;37.56
